Time;durP1;ratioP1;P1;durP2;ratioP2;P2;SDS_P1;SDS_P2;PMS_P1;PMS_P2;Temp;Humidity;BMP_temperature;BMP_pressure;BME280_temperature;BME280_humidity;BME280_pressure;Samples;Min_cycle;Max_cycle;Signal;HPM_P1;HPM_P2
2023/06/02 00:01:28;;;;;;;7.73;5.23;;;9.70;99.90;;;;;;8253738;28;20255;-63
2023/06/02 00:05:31;;;;;;;6.00;4.80;;;9.60;99.90;;;;;;8256217;28;20341;-63
2023/06/02 00:09:37;;;;;;;6.30;5.27;;;9.50;99.90;;;;;;8267669;28;20219;-64
2023/06/02 00:13:39;;;;;;;7.60;4.93;;;9.40;99.90;;;;;;8258839;28;20195;-62
2023/06/02 00:17:40;;;;;;;5.10;4.30;;;9.40;99.90;;;;;;8254045;28;20275;-63
2023/06/02 00:21:42;;;;;;;6.30;4.77;;;9.30;99.90;;;;;;8254601;28;20202;-63
2023/06/02 00:25:43;;;;;;;6.23;4.77;;;9.30;99.90;;;;;;8252015;28;20188;-62
2023/06/02 00:29:47;;;;;;;6.23;4.43;;;9.20;99.90;;;;;;8253523;28;20250;-63
2023/06/02 00:33:49;;;;;;;7.27;4.90;;;9.30;1.00;;;;;;8253269;28;20194;-63
2023/06/02 00:37:50;;;;;;;5.83;4.80;;;9.40;1.00;;;;;;8251702;28;20191;-63
2023/06/02 00:41:51;;;;;;;5.47;4.47;;;9.50;1.00;;;;;;8259611;28;20195;-62
2023/06/02 00:45:53;;;;;;;6.90;5.10;;;9.50;1.00;;;;;;8250531;28;20287;-63
2023/06/02 00:49:54;;;;;;;5.93;4.93;;;9.60;1.00;;;;;;8253833;28;20218;-63
2023/06/02 00:53:55;;;;;;;5.13;4.63;;;9.60;1.00;;;;;;8253736;28;20190;-62
2023/06/02 00:57:58;;;;;;;6.27;4.57;;;9.50;1.00;;;;;;8252023;28;20220;-63
2023/06/02 01:02:00;;;;;;;5.70;4.53;;;9.40;1.00;;;;;;8251353;28;20199;-63
2023/06/02 01:06:02;;;;;;;7.97;5.00;;;9.30;1.00;;;;;;8251324;28;20257;-63
2023/06/02 01:10:08;;;;;;;6.90;4.97;;;9.30;1.00;;;;;;8252603;28;20246;-63
2023/06/02 01:14:13;;;;;;;8.73;5.03;;;9.20;1.00;;;;;;8246782;28;20223;-63
2023/06/02 01:18:16;;;;;;;5.67;4.73;;;9.10;1.00;;;;;;8266966;28;20184;-63
2023/06/02 01:22:25;;;;;;;7.37;4.70;;;8.90;1.00;;;;;;8262754;28;20254;-62
2023/06/02 01:26:31;;;;;;;8.47;5.40;;;8.90;2.00;;;;;;8266959;28;20195;-64
2023/06/02 01:30:33;;;;;;;7.70;5.40;;;8.80;51.40;;;;;;8254931;28;20218;-63
2023/06/02 01:34:48;;;;;;;8.10;5.70;;;8.70;99.90;;;;;;8264720;28;20184;-64
2023/06/02 01:38:51;;;;;;;7.87;5.77;;;8.70;99.90;;;;;;8282105;28;20204;-63
2023/06/02 01:42:53;;;;;;;7.40;5.57;;;8.60;99.90;;;;;;8249064;28;20192;-63
2023/06/02 01:46:55;;;;;;;7.63;6.07;;;8.60;99.90;;;;;;8268783;28;20190;-62
2023/06/02 01:50:56;;;;;;;7.37;5.57;;;8.60;99.90;;;;;;8265714;28;20219;-63
2023/06/02 01:54:57;;;;;;;6.93;5.83;;;8.60;1.00;;;;;;8273841;28;20269;-63
2023/06/02 01:58:58;;;;;;;9.40;6.20;;;8.60;1.00;;;;;;8259266;28;20238;-63
2023/06/02 02:02:59;;;;;;;8.50;5.73;;;8.60;1.00;;;;;;8258028;28;20217;-62
2023/06/02 02:07:01;;;;;;;8.33;6.30;;;8.70;1.00;;;;;;8264263;28;20196;-63
2023/06/02 02:11:06;;;;;;;7.53;5.73;;;8.70;1.00;;;;;;8260889;28;20219;-62
2023/06/02 02:15:10;;;;;;;7.67;5.77;;;8.60;1.00;;;;;;8259502;28;20278;-63
2023/06/02 02:19:12;;;;;;;7.43;5.73;;;8.60;1.00;;;;;;8256053;28;20205;-64
2023/06/02 02:23:13;;;;;;;8.37;6.00;;;8.50;1.00;;;;;;8260523;28;20236;-63
2023/06/02 02:27:14;;;;;;;9.80;5.87;;;8.40;1.00;;;;;;8257459;28;20196;-62
2023/06/02 02:31:15;;;;;;;6.17;4.73;;;8.30;1.00;;;;;;8259948;28;20218;-65
2023/06/02 02:35:16;;;;;;;7.13;5.90;;;8.40;57.80;;;;;;8268224;28;20194;-64
2023/06/02 02:39:17;;;;;;;7.47;5.67;;;8.40;99.90;;;;;;8256469;28;20199;-63
2023/06/02 02:43:19;;;;;;;7.10;5.67;;;8.40;99.90;;;;;;8260009;28;20225;-62
2023/06/02 02:47:20;;;;;;;8.30;6.03;;;8.50;99.90;;;;;;8259418;28;20194;-62
2023/06/02 02:51:21;;;;;;;6.83;5.83;;;8.50;99.90;;;;;;8267721;28;20245;-65
2023/06/02 02:55:23;;;;;;;9.00;6.17;;;8.60;99.90;;;;;;8258387;28;20200;-64
2023/06/02 02:59:27;;;;;;;10.87;6.50;;;8.70;99.90;;;;;;8254097;28;20200;-66
2023/06/02 03:03:28;;;;;;;7.57;5.87;;;8.80;74.80;;;;;;8253870;28;20214;-65
2023/06/02 03:07:34;;;;;;;9.00;6.00;;;8.90;38.80;;;;;;8266950;28;20202;-66
2023/06/02 03:11:35;;;;;;;7.27;5.80;;;9.10;1.00;;;;;;8260396;28;20183;-65
2023/06/02 03:15:36;;;;;;;10.47;5.77;;;9.20;1.00;;;;;;8254917;28;20396;-65
2023/06/02 03:19:37;;;;;;;8.57;5.63;;;9.40;1.00;;;;;;8258423;28;20249;-65
2023/06/02 03:23:40;;;;;;;9.20;5.93;;;9.50;99.90;;;;;;8270187;28;20271;-63
2023/06/02 03:27:41;;;;;;;8.60;5.97;;;9.60;99.90;;;;;;8257025;28;20214;-65
2023/06/02 03:31:44;;;;;;;8.90;6.30;;;9.80;99.90;;;;;;8256323;28;20188;-66
2023/06/02 03:35:46;;;;;;;8.60;6.20;;;9.90;99.90;;;;;;8256630;28;20319;-63
2023/06/02 03:39:47;;;;;;;7.40;6.20;;;10.10;99.90;;;;;;8258367;28;20199;-64
2023/06/02 03:43:48;;;;;;;10.40;7.27;;;10.20;99.90;;;;;;8267823;28;20196;-65
2023/06/02 03:47:48;;;;;;;8.57;6.47;;;10.40;63.40;;;;;;8254771;28;20215;-65
2023/06/02 03:51:50;;;;;;;9.70;6.53;;;10.60;1.00;;;;;;8271433;28;20192;-64
2023/06/02 03:55:51;;;;;;;11.47;7.33;;;10.70;1.00;;;;;;8255033;28;20215;-65
2023/06/02 03:59:52;;;;;;;14.27;7.80;;;10.90;1.00;;;;;;8255443;28;20233;-64
2023/06/02 04:03:56;;;;;;;9.93;7.27;;;11.10;99.90;;;;;;8264160;28;20243;-64
2023/06/02 04:07:57;;;;;;;8.10;6.17;;;11.30;99.90;;;;;;8273155;28;20218;-64
2023/06/02 04:11:57;;;;;;;11.80;6.67;;;11.50;99.90;;;;;;8254302;28;20198;-64
2023/06/02 04:15:59;;;;;;;12.57;7.20;;;11.70;99.90;;;;;;8260195;28;20181;-65
2023/06/02 04:20:00;;;;;;;8.37;6.70;;;11.80;99.90;;;;;;8252634;28;20251;-65
2023/06/02 04:24:01;;;;;;;10.33;7.20;;;12.10;99.90;;;;;;8272584;28;20199;-65
2023/06/02 04:28:02;;;;;;;11.90;6.67;;;12.40;99.90;;;;;;8258834;28;20213;-64
2023/06/02 04:32:03;;;;;;;9.97;6.70;;;12.50;99.90;;;;;;8268941;28;20228;-64
2023/06/02 04:36:05;;;;;;;11.33;7.10;;;12.90;99.90;;;;;;8263647;28;20261;-64
2023/06/02 04:40:06;;;;;;;11.70;6.93;;;13.30;99.10;;;;;;8270875;28;20200;-63
2023/06/02 04:44:09;;;;;;;11.07;6.87;;;13.60;76.10;;;;;;8254406;28;20199;-64
2023/06/02 04:48:11;;;;;;;9.53;6.17;;;13.80;42.90;;;;;;8257380;28;20218;-63
2023/06/02 04:52:18;;;;;;;9.20;6.70;;;14.00;33.50;;;;;;8255752;28;20187;-65
2023/06/02 04:56:19;;;;;;;12.03;7.67;;;14.00;22.40;;;;;;8255159;28;20291;-65
2023/06/02 05:00:20;;;;;;;10.80;6.97;;;13.70;25.40;;;;;;8249606;28;20195;-65
2023/06/02 05:04:22;;;;;;;10.90;7.37;;;13.40;47.70;;;;;;8255988;28;20215;-64
2023/06/02 05:08:23;;;;;;;10.67;6.90;;;13.20;90.70;;;;;;8266691;28;20206;-64
2023/06/02 05:12:27;;;;;;;9.07;6.67;;;13.20;96.10;;;;;;8271059;28;20201;-64
2023/06/02 05:16:29;;;;;;;9.77;6.97;;;13.40;99.90;;;;;;8266782;28;20187;-63
2023/06/02 05:20:30;;;;;;;10.30;6.30;;;13.40;99.90;;;;;;8254378;28;20217;-63
2023/06/02 05:24:33;;;;;;;10.50;6.87;;;13.50;99.90;;;;;;8264928;28;20195;-65
2023/06/02 05:28:34;;;;;;;10.20;6.77;;;13.80;90.80;;;;;;8253241;28;20219;-63
2023/06/02 05:32:35;;;;;;;12.97;6.87;;;14.00;54.00;;;;;;8256102;28;20192;-63
2023/06/02 05:36:42;;;;;;;11.20;6.87;;;14.40;41.00;;;;;;8268456;28;20191;-65
2023/06/02 05:40:49;;;;;;;8.83;6.40;;;15.00;18.90;;;;;;8266091;28;20195;-66
2023/06/02 05:44:55;;;;;;;11.20;7.07;;;15.30;1.00;;;;;;8257167;28;20202;-64
2023/06/02 05:48:56;;;;;;;8.70;6.63;;;15.70;1.00;;;;;;8269329;28;20222;-64
2023/06/02 05:52:57;;;;;;;10.37;5.97;;;15.90;1.00;;;;;;8266975;28;20194;-65
2023/06/02 05:56:58;;;;;;;8.40;5.97;;;16.10;1.00;;;;;;8267057;28;20204;-65
2023/06/02 06:00:59;;;;;;;9.90;5.97;;;16.10;1.00;;;;;;8250402;28;20218;-63
2023/06/02 06:05:00;;;;;;;8.20;5.50;;;16.10;1.00;;;;;;8250901;28;20242;-64
2023/06/02 06:09:01;;;;;;;7.63;4.27;;;16.30;1.00;;;;;;8266529;28;20215;-65
2023/06/02 06:13:16;;;;;;;7.03;3.93;;;16.40;1.00;;;;;;8253035;28;20188;-64
2023/06/02 06:17:17;;;;;;;6.93;4.37;;;16.50;1.00;;;;;;8253009;28;20235;-65
2023/06/02 06:21:17;;;;;;;7.50;3.57;;;16.80;1.00;;;;;;8251274;28;20202;-66
2023/06/02 06:25:20;;;;;;;7.07;3.70;;;17.00;1.00;;;;;;8263562;28;20196;-66
2023/06/02 06:29:24;;;;;;;6.87;3.50;;;16.80;1.00;;;;;;8255585;28;20223;-65
2023/06/02 06:33:25;;;;;;;6.77;4.03;;;16.80;1.00;;;;;;8253108;28;20199;-65
2023/06/02 06:37:29;;;;;;;7.10;3.80;;;16.80;1.00;;;;;;8255059;28;20215;-65
2023/06/02 06:41:40;;;;;;;6.43;3.87;;;17.10;1.00;;;;;;8268914;28;20191;-65
2023/06/02 06:45:41;;;;;;;7.97;3.47;;;16.80;1.00;;;;;;8272243;28;20266;-64
2023/06/02 06:49:42;;;;;;;9.83;3.40;;;16.30;1.00;;;;;;8254409;28;20294;-65
2023/06/02 06:53:43;;;;;;;8.37;3.03;;;16.40;1.00;;;;;;8269676;28;20198;-65
2023/06/02 06:57:47;;;;;;;10.10;3.57;;;16.50;1.00;;;;;;8269179;28;20241;-65
2023/06/02 07:01:59;;;;;;;10.00;4.50;;;16.40;1.00;;;;;;8260178;28;20261;-66
2023/06/02 07:06:01;;;;;;;13.13;3.50;;;16.20;1.00;;;;;;8273188;28;20204;-64
2023/06/02 07:10:06;;;;;;;11.07;3.17;;;15.90;1.00;;;;;;8252920;28;20335;-64
2023/06/02 07:14:07;;;;;;;13.83;5.10;;;16.30;1.00;;;;;;8267146;28;20311;-64
2023/06/02 07:18:08;;;;;;;13.20;4.53;;;16.90;1.00;;;;;;8269566;28;20190;-65
2023/06/02 07:22:10;;;;;;;8.33;3.60;;;17.00;1.00;;;;;;8258162;28;20190;-64
2023/06/02 07:26:13;;;;;;;9.27;3.10;;;16.90;1.00;;;;;;8283898;28;20200;-64
2023/06/02 07:30:15;;;;;;;9.67;3.27;;;16.70;1.00;;;;;;8270664;28;20273;-64
2023/06/02 07:34:16;;;;;;;10.57;3.17;;;16.80;1.00;;;;;;8272717;28;20238;-64
2023/06/02 07:38:17;;;;;;;9.13;2.73;;;17.00;1.00;;;;;;8268366;28;20206;-66
2023/06/02 07:42:19;;;;;;;6.90;3.07;;;17.10;1.00;;;;;;8271074;28;20279;-63
2023/06/02 07:46:23;;;;;;;5.67;3.07;;;17.20;1.00;;;;;;8254340;28;20203;-65
2023/06/02 07:50:24;;;;;;;8.37;3.30;;;17.20;1.00;;;;;;8270138;28;20212;-65
2023/06/02 07:54:34;;;;;;;7.30;3.30;;;17.30;1.00;;;;;;8256990;28;20262;-65
2023/06/02 07:58:35;;;;;;;10.13;3.10;;;16.80;1.00;;;;;;8286648;28;20211;-65
2023/06/02 08:02:36;;;;;;;10.80;3.57;;;16.80;1.00;;;;;;8254450;28;20215;-66
2023/06/02 08:06:37;;;;;;;10.20;3.43;;;17.10;1.00;;;;;;8270014;28;20188;-65
2023/06/02 08:10:46;;;;;;;9.97;3.20;;;17.30;1.00;;;;;;8279715;28;20254;-65
2023/06/02 08:14:50;;;;;;;10.10;3.13;;;17.40;1.00;;;;;;8251368;28;20271;-64
2023/06/02 08:18:54;;;;;;;9.60;3.80;;;16.80;1.00;;;;;;8269653;28;20195;-65
2023/06/02 08:22:56;;;;;;;7.20;3.53;;;16.70;1.00;;;;;;8266267;28;20198;-62
2023/06/02 08:26:57;;;;;;;8.60;3.57;;;17.20;1.00;;;;;;8268721;28;20199;-65
2023/06/02 08:30:58;;;;;;;8.20;3.47;;;17.90;1.00;;;;;;8253014;28;20249;-67
2023/06/02 08:35:01;;;;;;;7.43;2.90;;;17.90;1.00;;;;;;8266393;28;20219;-71
2023/06/02 08:39:08;;;;;;;6.67;3.00;;;17.60;1.00;;;;;;8253289;28;20195;-70
2023/06/02 08:43:18;;;;;;;8.77;3.00;;;17.90;1.00;;;;;;8255119;28;20279;-70
2023/06/02 08:47:28;;;;;;;6.93;2.80;;;18.30;1.00;;;;;;8255554;28;20191;-72
2023/06/02 08:51:44;;;;;;;5.20;2.93;;;17.90;1.00;;;;;;8254926;28;20239;-70
2023/06/02 08:55:48;;;;;;;7.10;2.40;;;17.80;1.00;;;;;;8269172;28;20203;-71
2023/06/02 08:59:49;;;;;;;7.53;2.90;;;18.00;1.00;;;;;;8269325;28;20199;-73
2023/06/02 09:03:53;;;;;;;7.70;2.50;;;18.40;1.00;;;;;;8253274;28;20208;-68
2023/06/02 09:08:12;;;;;;;6.47;2.70;;;18.70;1.00;;;;;;8260109;28;20219;-71
2023/06/02 09:12:14;;;;;;;7.67;3.40;;;19.30;1.00;;;;;;8270387;28;20280;-71
2023/06/02 09:16:16;;;;;;;7.90;2.70;;;19.30;1.00;;;;;;8288819;28;20198;-70
2023/06/02 09:20:17;;;;;;;7.87;2.80;;;18.80;1.00;;;;;;8251570;28;20195;-71
2023/06/02 09:24:32;;;;;;;4.93;2.67;;;18.20;1.00;;;;;;8269740;28;20198;-71
2023/06/02 09:28:53;;;;;;;5.40;2.37;;;18.30;1.00;;;;;;8249630;28;20220;-72
2023/06/02 09:32:59;;;;;;;6.50;2.70;;;18.60;1.00;;;;;;8269423;28;20225;-72
2023/06/02 09:37:15;;;;;;;5.87;2.27;;;19.20;1.00;;;;;;8267910;28;20183;-72
2023/06/02 09:41:17;;;;;;;6.13;2.50;;;20.00;1.00;;;;;;8258861;28;20207;-73
2023/06/02 09:45:18;;;;;;;8.20;2.27;;;20.10;1.00;;;;;;8252570;28;20199;-73
2023/06/02 09:49:19;;;;;;;6.87;2.73;;;19.60;1.00;;;;;;8252580;28;20215;-72
2023/06/02 09:53:22;;;;;;;5.63;2.20;;;19.00;1.00;;;;;;8283606;28;20195;-71
2023/06/02 09:57:24;;;;;;;7.07;2.17;;;18.80;1.00;;;;;;8267665;28;20263;-70
2023/06/02 10:01:26;;;;;;;7.47;2.97;;;18.80;1.00;;;;;;8284090;28;20190;-72
2023/06/02 10:05:28;;;;;;;8.87;2.80;;;18.90;1.00;;;;;;8268703;28;20215;-71
2023/06/02 10:09:38;;;;;;;6.07;2.23;;;18.70;1.00;;;;;;8255144;28;20218;-72
2023/06/02 10:14:16;;;;;;;5.33;2.60;;;18.20;1.00;;;;;;8266842;28;20190;-72
2023/06/02 10:18:43;;;;;;;5.80;2.53;;;18.10;1.00;;;;;;8273148;28;20199;-71
2023/06/02 10:22:48;;;;;;;14.43;5.57;;;18.60;1.00;;;;;;8257673;28;20266;-70
2023/06/02 10:27:01;;;;;;;4.07;1.90;;;18.90;1.00;;;;;;8274475;28;20252;-71
2023/06/02 10:31:07;;;;;;;7.33;2.83;;;19.10;1.00;;;;;;8272988;28;20215;-71
2023/06/02 10:35:08;;;;;;;7.20;2.10;;;19.10;1.00;;;;;;8274748;28;20195;-71
2023/06/02 10:39:41;;;;;;;7.17;2.30;;;19.00;1.00;;;;;;8257380;28;20199;-72
2023/06/02 10:44:25;;;;;;;8.57;2.33;;;17.90;1.00;;;;;;8277150;28;20209;-72
2023/06/02 10:48:40;;;;;;;7.23;3.07;;;17.70;1.00;;;;;;8258571;28;20214;-69
2023/06/02 10:53:00;;;;;;;10.63;3.53;;;17.60;1.00;;;;;;8259348;28;20199;-71
2023/06/02 10:57:00;;;;;;;6.70;2.93;;;17.70;1.00;;;;;;8273837;28;20266;-73
2023/06/02 11:01:02;;;;;;;7.77;3.20;;;17.90;1.00;;;;;;8261887;28;20190;-72
2023/06/02 11:05:26;;;;;;;9.67;2.93;;;18.10;1.00;;;;;;8269021;28;20300;-72
2023/06/02 11:09:39;;;;;;;8.60;2.60;;;18.10;1.00;;;;;;8271079;28;20262;-72
2023/06/02 11:13:58;;;;;;;7.57;2.53;;;17.90;1.00;;;;;;8289811;28;20200;-69
2023/06/02 11:18:19;;;;;;;8.57;2.67;;;18.00;1.00;;;;;;8269099;28;20188;-72
2023/06/02 11:22:30;;;;;;;4.83;2.40;;;18.30;1.00;;;;;;8274139;28;20202;-71
2023/06/02 11:26:31;;;;;;;9.13;3.03;;;18.90;1.00;;;;;;8271359;28;20200;-71
2023/06/02 11:30:32;;;;;;;9.87;2.77;;;18.80;1.00;;;;;;8270697;28;20343;-72
2023/06/02 11:34:32;;;;;;;5.57;2.63;;;18.30;1.00;;;;;;8275432;28;20251;-72
2023/06/02 11:38:34;;;;;;;5.00;2.87;;;18.40;1.00;;;;;;8275747;28;20230;-72
2023/06/02 11:42:41;;;;;;;6.50;3.00;;;18.20;1.00;;;;;;8260025;28;20262;-70
2023/06/02 11:46:45;;;;;;;5.97;2.83;;;18.00;1.00;;;;;;8273900;28;20194;-71
2023/06/02 11:50:53;;;;;;;4.17;2.70;;;18.00;1.00;;;;;;8288481;28;20220;-73
2023/06/02 11:54:55;;;;;;;8.13;3.50;;;18.10;1.00;;;;;;8277512;28;20190;-70
2023/06/02 11:58:56;;;;;;;6.47;2.87;;;18.60;1.00;;;;;;8274676;28;20214;-70
2023/06/02 12:03:07;;;;;;;4.93;2.47;;;18.80;1.00;;;;;;8273854;28;20211;-71
2023/06/02 12:07:10;;;;;;;6.40;3.37;;;18.80;1.00;;;;;;8262143;28;20194;-72
2023/06/02 12:11:18;;;;;;;8.07;3.50;;;19.00;1.00;;;;;;8272042;28;20215;-72
2023/06/02 12:15:19;;;;;;;6.43;2.60;;;19.10;1.00;;;;;;8257659;28;20192;-72
2023/06/02 12:19:22;;;;;;;7.83;2.73;;;19.80;1.00;;;;;;8253316;28;20187;-71
2023/06/02 12:23:23;;;;;;;4.77;2.07;;;20.60;1.00;;;;;;8269428;28;20242;-69
2023/06/02 12:27:24;;;;;;;6.20;3.20;;;20.00;1.00;;;;;;8253764;28;20194;-70
2023/06/02 12:31:25;;;;;;;5.27;2.80;;;18.90;1.00;;;;;;8251728;28;20211;-71
2023/06/02 12:35:26;;;;;;;7.20;2.80;;;18.60;1.00;;;;;;8253323;28;20202;-73
2023/06/02 12:39:27;;;;;;;5.63;2.57;;;18.50;1.00;;;;;;8268068;28;20191;-71
2023/06/02 12:43:29;;;;;;;5.77;2.90;;;18.60;1.00;;;;;;8273640;28;20223;-71
2023/06/02 12:47:34;;;;;;;5.60;2.90;;;19.00;1.00;;;;;;8255135;28;20286;-71
2023/06/02 12:51:35;;;;;;;3.93;2.47;;;19.30;1.00;;;;;;8269467;28;20218;-70
2023/06/02 12:55:36;;;;;;;7.13;2.83;;;19.80;1.00;;;;;;8250924;28;20195;-70
2023/06/02 12:59:37;;;;;;;3.97;2.20;;;20.00;1.00;;;;;;8256422;28;20199;-72
2023/06/02 13:03:49;;;;;;;3.60;2.20;;;19.90;1.00;;;;;;8269863;28;20219;-72
2023/06/02 13:07:50;;;;;;;7.87;2.70;;;19.30;1.00;;;;;;8270150;28;20195;-71
2023/06/02 13:11:52;;;;;;;3.90;2.23;;;19.60;1.00;;;;;;8271014;28;20246;-69
2023/06/02 13:15:53;;;;;;;11.83;8.43;;;19.90;1.00;;;;;;8267765;28;20183;-71
2023/06/02 13:19:54;;;;;;;13.37;9.83;;;19.80;1.00;;;;;;8256190;28;20195;-72
2023/06/02 13:23:58;;;;;;;4.83;3.90;;;19.60;1.00;;;;;;8268670;28;20192;-71
2023/06/02 13:27:59;;;;;;;7.10;5.43;;;19.50;1.00;;;;;;8260145;28;20192;-72
2023/06/02 13:32:09;;;;;;;8.23;5.17;;;19.80;1.00;;;;;;8251010;28;20196;-72
2023/06/02 13:36:10;;;;;;;4.27;3.50;;;20.40;1.00;;;;;;8268756;28;20206;-72
2023/06/02 13:40:14;;;;;;;6.07;4.53;;;20.70;1.00;;;;;;8270196;28;20198;-72
2023/06/02 13:44:24;;;;;;;4.87;4.13;;;20.60;1.00;;;;;;8254631;28;20301;-71
2023/06/02 13:48:37;;;;;;;11.60;7.30;;;20.30;1.00;;;;;;8283709;28;20251;-70
2023/06/02 13:52:38;;;;;;;10.00;6.80;;;20.30;1.00;;;;;;8277615;28;20184;-69
2023/06/02 13:56:41;;;;;;;7.83;4.37;;;20.40;1.00;;;;;;8258740;28;20201;-72
2023/06/02 14:00:42;;;;;;;5.23;3.60;;;20.20;1.00;;;;;;8275634;28;20195;-72
2023/06/02 14:04:43;;;;;;;5.47;3.53;;;20.00;1.00;;;;;;8275250;28;20211;-72
2023/06/02 14:08:44;;;;;;;4.33;3.33;;;19.90;1.00;;;;;;8263505;28;20210;-71
2023/06/02 14:12:45;;;;;;;5.30;4.00;;;20.10;1.00;;;;;;8274644;28;20183;-70
2023/06/02 14:16:47;;;;;;;3.33;3.03;;;20.50;1.00;;;;;;8256476;28;20362;-71
2023/06/02 14:20:50;;;;;;;4.93;3.70;;;20.30;1.00;;;;;;8273322;28;20199;-72
2023/06/02 14:24:54;;;;;;;5.30;3.83;;;20.20;1.00;;;;;;8264556;28;20199;-72
2023/06/02 14:28:55;;;;;;;3.87;2.90;;;20.40;1.00;;;;;;8272509;28;20226;-73
2023/06/02 14:32:56;;;;;;;5.70;3.33;;;20.60;1.00;;;;;;8275657;28;20191;-73
2023/06/02 14:36:58;;;;;;;8.40;4.10;;;20.30;1.00;;;;;;8263159;28;20187;-74
2023/06/02 14:40:59;;;;;;;5.83;3.00;;;20.20;1.00;;;;;;8277960;28;20184;-73
2023/06/02 14:45:03;;;;;;;5.13;2.90;;;20.40;1.00;;;;;;8261508;28;20184;-73
2023/06/02 14:49:04;;;;;;;3.77;2.20;;;20.50;1.00;;;;;;8273244;28;20230;-71
2023/06/02 14:53:05;;;;;;;2.93;2.23;;;20.50;1.00;;;;;;8256722;28;20218;-71
2023/06/02 14:57:09;;;;;;;2.40;2.00;;;20.60;1.00;;;;;;8261500;28;20199;-73
2023/06/02 15:01:13;;;;;;;3.37;1.83;;;20.30;1.00;;;;;;8275587;28;20278;-72
2023/06/02 15:05:14;;;;;;;3.47;1.80;;;20.00;1.00;;;;;;8273628;28;20215;-73
2023/06/02 15:09:17;;;;;;;3.33;2.13;;;19.80;1.00;;;;;;8275810;28;20362;-74
2023/06/02 15:13:18;;;;;;;1.90;1.70;;;19.90;1.00;;;;;;8262882;28;20197;-73
2023/06/02 15:17:19;;;;;;;3.10;2.27;;;20.10;1.00;;;;;;8275812;28;20221;-74
2023/06/02 15:21:20;;;;;;;2.57;1.70;;;20.10;1.00;;;;;;8260130;28;20222;-73
2023/06/02 15:25:21;;;;;;;3.20;1.80;;;20.10;1.00;;;;;;8255206;28;20283;-73
2023/06/02 15:29:22;;;;;;;4.33;2.00;;;20.00;1.00;;;;;;8263345;28;20226;-72
2023/06/02 15:33:23;;;;;;;7.37;4.17;;;19.80;1.00;;;;;;8272309;28;20186;-72
2023/06/02 15:37:24;;;;;;;2.87;1.67;;;19.60;1.00;;;;;;8275195;28;20183;-74
2023/06/02 15:41:26;;;;;;;4.40;1.73;;;19.40;1.00;;;;;;8253987;28;20195;-70
2023/06/02 15:45:27;;;;;;;3.33;2.00;;;19.50;1.00;;;;;;8257710;28;20199;-73
2023/06/02 15:49:28;;;;;;;2.37;1.10;;;19.80;1.00;;;;;;8262423;28;20214;-72
2023/06/02 15:53:29;;;;;;;4.33;1.60;;;19.80;1.00;;;;;;8253718;28;20211;-71
2023/06/02 15:57:30;;;;;;;9.83;2.53;;;19.80;1.00;;;;;;8270683;28;20202;-71
2023/06/02 16:01:31;;;;;;;4.63;1.57;;;19.80;1.00;;;;;;8257118;28;20195;-71
2023/06/02 16:05:35;;;;;;;3.87;1.97;;;19.60;1.00;;;;;;8270780;28;20211;-74
2023/06/02 16:09:36;;;;;;;2.83;1.40;;;19.40;1.00;;;;;;8270264;28;20211;-69
2023/06/02 16:13:37;;;;;;;6.10;1.67;;;19.40;1.00;;;;;;8285655;28;20196;-72
2023/06/02 16:17:38;;;;;;;8.07;3.07;;;19.40;1.00;;;;;;8257639;28;20191;-72
2023/06/02 16:21:39;;;;;;;11.90;4.70;;;19.40;1.00;;;;;;8282892;28;20197;-73
2023/06/02 16:25:40;;;;;;;6.03;1.60;;;19.30;1.00;;;;;;8285388;28;20203;-71
2023/06/02 16:29:44;;;;;;;3.70;2.37;;;19.20;1.00;;;;;;8250947;28;20254;-67
2023/06/02 16:33:46;;;;;;;7.20;4.10;;;19.20;1.00;;;;;;8258610;28;20198;-71
2023/06/02 16:37:49;;;;;;;3.63;1.90;;;19.20;1.00;;;;;;8268833;28;20219;-73
2023/06/02 16:41:53;;;;;;;5.23;1.80;;;19.20;1.00;;;;;;8270592;28;20199;-72
2023/06/02 16:45:54;;;;;;;5.53;1.53;;;19.20;1.00;;;;;;8256805;28;20203;-71
2023/06/02 16:49:55;;;;;;;3.43;1.47;;;19.00;1.00;;;;;;8259801;28;20215;-72
2023/06/02 16:53:59;;;;;;;4.80;2.93;;;18.90;1.00;;;;;;8259401;28;20194;-72
2023/06/02 16:58:01;;;;;;;6.23;1.90;;;18.80;1.00;;;;;;8271822;28;20210;-73
2023/06/02 17:02:06;;;;;;;2.93;1.30;;;18.70;1.00;;;;;;8252085;28;20187;-72
2023/06/02 17:06:07;;;;;;;5.67;3.17;;;18.60;1.00;;;;;;8268363;28;20200;-71
2023/06/02 17:10:13;;;;;;;2.73;1.77;;;18.60;1.00;;;;;;8273071;28;20234;-71
2023/06/02 17:14:15;;;;;;;5.30;1.70;;;18.70;1.00;;;;;;8256766;28;20219;-73
2023/06/02 17:18:16;;;;;;;2.63;1.60;;;19.30;1.00;;;;;;8268586;28;20202;-74
2023/06/02 17:22:20;;;;;;;7.97;2.00;;;20.20;1.00;;;;;;8266147;28;20210;-72
2023/06/02 17:26:21;;;;;;;3.37;1.73;;;20.30;1.00;;;;;;8258912;28;20303;-73
2023/06/02 17:30:24;;;;;;;4.93;2.27;;;19.90;1.00;;;;;;8270364;28;20207;-73
2023/06/02 17:34:25;;;;;;;3.47;2.20;;;19.30;1.00;;;;;;8261324;28;20199;-72
2023/06/02 17:38:26;;;;;;;5.53;2.57;;;18.70;1.00;;;;;;8254281;28;20422;-75
2023/06/02 17:42:27;;;;;;;5.10;2.60;;;19.10;1.00;;;;;;8272249;28;20229;-72
2023/06/02 17:46:28;;;;;;;5.07;2.13;;;20.10;1.00;;;;;;8260497;28;20273;-72
2023/06/02 17:50:30;;;;;;;4.70;2.13;;;21.00;1.00;;;;;;8259454;28;20207;-69
2023/06/02 17:54:35;;;;;;;4.30;2.47;;;21.50;1.00;;;;;;8254731;28;20198;-73
2023/06/02 17:58:36;;;;;;;8.23;3.27;;;21.50;1.00;;;;;;8283834;28;20203;-72
2023/06/02 18:02:37;;;;;;;6.93;3.20;;;21.70;1.00;;;;;;8275873;28;20215;-72
2023/06/02 18:06:38;;;;;;;9.83;2.83;;;21.80;1.00;;;;;;8260476;28;20203;-72
2023/06/02 18:10:39;;;;;;;5.80;2.30;;;22.00;1.00;;;;;;8255738;28;20282;-73
2023/06/02 18:14:40;;;;;;;8.70;5.40;;;22.00;1.00;;;;;;8282489;28;20187;-74
2023/06/02 18:18:41;;;;;;;8.33;4.67;;;21.80;1.00;;;;;;8255839;28;20225;-73
2023/06/02 18:22:50;;;;;;;14.93;10.33;;;21.70;1.00;;;;;;8256176;28;20210;-71
2023/06/02 18:26:51;;;;;;;12.13;9.97;;;21.60;1.00;;;;;;8248405;28;20270;-71
2023/06/02 18:30:52;;;;;;;11.07;7.77;;;21.40;1.00;;;;;;8250701;28;20265;-71
2023/06/02 18:34:53;;;;;;;16.43;12.20;;;21.00;1.00;;;;;;8266458;28;20188;-71
2023/06/02 18:38:54;;;;;;;11.33;8.33;;;20.60;1.00;;;;;;8274903;28;20191;-72
2023/06/02 18:42:55;;;;;;;16.90;10.03;;;20.10;1.00;;;;;;8258238;28;20310;-72
2023/06/02 18:46:56;;;;;;;7.90;5.20;;;19.70;1.00;;;;;;8261675;28;20200;-72
2023/06/02 18:50:57;;;;;;;8.80;4.17;;;19.10;1.00;;;;;;8291732;28;20288;-73
2023/06/02 18:55:01;;;;;;;7.27;4.00;;;18.30;1.00;;;;;;8274337;28;20209;-73
2023/06/02 18:59:02;;;;;;;7.40;4.23;;;17.40;1.00;;;;;;8271553;28;20199;-72
2023/06/02 19:03:05;;;;;;;7.67;3.80;;;16.60;1.00;;;;;;8294153;28;20233;-73
2023/06/02 19:07:07;;;;;;;6.27;3.70;;;16.00;1.00;;;;;;8258678;28;20202;-72
2023/06/02 19:11:08;;;;;;;4.77;3.10;;;15.30;1.00;;;;;;8266765;28;20215;-73
2023/06/02 19:15:09;;;;;;;5.53;2.70;;;14.60;1.00;;;;;;8267157;28;20188;-74
2023/06/02 19:19:18;;;;;;;3.67;1.97;;;14.00;1.00;;;;;;8298035;28;20196;-74
2023/06/02 19:23:19;;;;;;;3.47;1.97;;;13.40;1.00;;;;;;8285025;28;20195;-73
2023/06/02 19:27:20;;;;;;;2.60;1.60;;;12.90;1.00;;;;;;8282276;28;20237;-74
2023/06/02 19:31:21;;;;;;;4.03;1.60;;;12.50;1.00;;;;;;8280381;28;20222;-73
2023/06/02 19:35:25;;;;;;;2.37;1.47;;;12.10;1.00;;;;;;8266023;28;20289;-73
2023/06/02 19:39:29;;;;;;;3.27;1.50;;;11.70;1.00;;;;;;8272206;28;20289;-75
2023/06/02 19:43:30;;;;;;;3.47;1.40;;;11.40;1.00;;;;;;8278379;28;20292;-74
2023/06/02 19:47:32;;;;;;;1.83;1.17;;;11.10;1.00;;;;;;8277862;28;20203;-72
2023/06/02 19:51:33;;;;;;;2.53;1.77;;;10.80;1.00;;;;;;8273771;28;20215;-73
2023/06/02 19:55:34;;;;;;;3.73;1.87;;;10.50;1.00;;;;;;8274528;28;20306;-72
2023/06/02 19:59:36;;;;;;;2.67;1.13;;;10.30;1.00;;;;;;8260642;28;20199;-73
2023/06/02 20:03:36;;;;;;;3.50;1.47;;;10.00;1.00;;;;;;8258769;28;20211;-72
2023/06/02 20:07:38;;;;;;;1.83;1.27;;;9.80;1.00;;;;;;8256577;28;20190;-73
2023/06/02 20:11:39;;;;;;;1.67;1.13;;;9.60;1.00;;;;;;8272856;28;20221;-72
2023/06/02 20:15:42;;;;;;;1.67;1.00;;;9.30;1.00;;;;;;8254113;28;20226;-72
2023/06/02 20:19:43;;;;;;;3.37;1.40;;;9.10;1.00;;;;;;8269161;28;20187;-73
2023/06/02 20:23:45;;;;;;;1.90;1.23;;;8.90;1.00;;;;;;8257086;28;20184;-73
2023/06/02 20:27:46;;;;;;;1.80;0.97;;;8.80;1.00;;;;;;8260389;28;20188;-72
2023/06/02 20:31:47;;;;;;;1.47;0.90;;;8.60;1.00;;;;;;8252995;28;20218;-74
2023/06/02 20:35:48;;;;;;;2.97;1.13;;;8.40;1.00;;;;;;8252226;28;20198;-72
2023/06/02 20:39:49;;;;;;;1.37;1.10;;;8.30;1.00;;;;;;8271061;28;20195;-72
2023/06/02 20:43:50;;;;;;;1.67;1.00;;;8.20;1.00;;;;;;8255718;28;20244;-72
2023/06/02 20:47:54;;;;;;;4.07;1.20;;;8.00;1.00;;;;;;8253572;28;20368;-72
2023/06/02 20:51:55;;;;;;;2.00;1.40;;;7.90;1.00;;;;;;8268839;28;20211;-72
2023/06/02 20:55:56;;;;;;;1.53;1.00;;;7.70;1.00;;;;;;8270655;28;20219;-72
2023/06/02 20:59:57;;;;;;;2.73;1.17;;;7.50;1.00;;;;;;8265170;28;20286;-71
2023/06/02 21:04:01;;;;;;;3.00;1.17;;;7.40;1.00;;;;;;8252031;28;20222;-73
2023/06/02 21:08:02;;;;;;;2.17;1.10;;;7.30;1.00;;;;;;8254237;28;20219;-73
2023/06/02 21:12:04;;;;;;;2.67;1.30;;;7.20;1.00;;;;;;8267435;28;20218;-72
2023/06/02 21:16:06;;;;;;;2.13;1.40;;;7.10;1.00;;;;;;8267881;28;20203;-72
2023/06/02 21:20:07;;;;;;;3.53;1.27;;;6.90;1.00;;;;;;8265746;28;20194;-72